createdAt,value
2023-03-13T00:00:45.007Z,14.48
2023-03-13T00:03:42.068Z,16.23
2023-03-13T00:06:39.912Z,16.15
2023-03-13T00:09:36.725Z,13.85
2023-03-13T00:12:33.532Z,14.68
2023-03-13T00:15:30.347Z,20.45
2023-03-13T00:18:27.287Z,22.00
2023-03-13T00:21:28.223Z,15.50
2023-03-13T00:24:25.057Z,13.45
2023-03-13T00:27:21.884Z,16.55
2023-03-13T00:30:18.729Z,21.17
2023-03-13T00:33:15.550Z,12.13
2023-03-13T00:36:16.623Z,13.93
2023-03-13T00:39:13.441Z,16.50
2023-03-13T00:42:10.267Z,14.27
2023-03-13T00:45:07.568Z,9.40
2023-03-13T00:48:04.648Z,17.33
2023-03-13T00:51:03.428Z,18.65
2023-03-13T00:54:00.998Z,17.33
2023-03-13T00:56:57.847Z,15.15
2023-03-13T00:59:54.662Z,18.92
2023-03-13T01:02:51.616Z,24.23
2023-03-13T01:06:04.065Z,16.17
2023-03-13T01:09:01.507Z,14.65
2023-03-13T01:11:58.407Z,17.25
2023-03-13T01:14:55.278Z,14.65
2023-03-13T01:17:52.144Z,25.05
2023-03-13T01:20:48.960Z,18.88
2023-03-13T01:23:46.596Z,13.75
2023-03-13T01:26:43.418Z,20.85
2023-03-13T01:29:40.340Z,17.00
2023-03-13T01:32:37.349Z,21.10
2023-03-13T01:35:34.308Z,19.02
2023-03-13T01:38:31.190Z,16.50
2023-03-13T01:41:30.874Z,14.93
2023-03-13T01:44:28.150Z,12.50
2023-03-13T01:47:24.982Z,11.32
2023-03-13T01:50:21.976Z,15.10
2023-03-13T01:53:19.005Z,17.20
2023-03-13T01:56:34.449Z,20.95
2023-03-13T01:59:41.720Z,18.13
2023-03-13T02:02:42.755Z,15.98
2023-03-13T02:05:42.292Z,17.85
2023-03-13T02:08:51.841Z,14.75
2023-03-13T02:12:02.848Z,15.00
2023-03-13T02:15:06.789Z,12.65
2023-03-13T02:18:03.688Z,15.45
2023-03-13T02:21:16.882Z,14.32
2023-03-13T02:24:32.220Z,14.05
2023-03-13T02:27:29.270Z,14.57
2023-03-13T02:30:26.944Z,14.40
2023-03-13T02:33:29.061Z,13.88
2023-03-13T02:36:27.229Z,14.32
2023-03-13T02:39:25.242Z,11.63
2023-03-13T02:42:23.239Z,15.30
2023-03-13T02:45:20.056Z,17.02
2023-03-13T02:48:16.873Z,12.80
2023-03-13T02:51:28.367Z,13.02
2023-03-13T02:54:32.985Z,9.73
2023-03-13T02:57:29.805Z,12.98
2023-03-13T03:00:27.621Z,13.65
2023-03-13T03:03:24.446Z,14.02
2023-03-13T03:06:21.314Z,16.90
2023-03-13T03:09:20.075Z,15.65
2023-03-13T03:12:16.925Z,10.80
2023-03-13T03:15:14.064Z,14.18
2023-03-13T03:18:11.097Z,19.20
2023-03-13T03:21:08.100Z,13.18
2023-03-13T03:24:05.771Z,10.50
2023-03-13T03:27:02.571Z,9.18
2023-03-13T03:29:59.399Z,12.25
2023-03-13T03:32:56.313Z,12.48
2023-03-13T03:35:58.908Z,13.00
2023-03-13T03:38:55.801Z,9.40
2023-03-13T03:41:52.610Z,12.90
2023-03-13T03:44:49.412Z,9.00
2023-03-13T03:47:46.218Z,8.45
2023-03-13T03:50:43.305Z,11.75
2023-03-13T03:53:40.311Z,7.38
2023-03-13T03:56:37.098Z,15.25
2023-03-13T03:59:33.927Z,7.70
2023-03-13T04:02:30.913Z,13.40
2023-03-13T04:05:27.812Z,4.93
2023-03-13T04:08:24.669Z,8.57
2023-03-13T04:11:21.691Z,15.23
2023-03-13T04:14:18.493Z,11.30
2023-03-13T04:17:15.315Z,12.65
2023-03-13T04:20:14.253Z,9.75
2023-03-13T04:23:11.115Z,11.48
2023-03-13T04:26:07.910Z,7.60
2023-03-13T04:29:06.298Z,11.57
2023-03-13T04:32:03.258Z,9.65
2023-03-13T04:35:00.164Z,13.10
2023-03-13T04:37:57.049Z,12.50
2023-03-13T04:40:53.864Z,14.38
2023-03-13T04:43:50.690Z,10.75
2023-03-13T04:46:47.801Z,7.75
2023-03-13T04:49:44.600Z,13.75
2023-03-13T04:52:41.423Z,12.20
2023-03-13T04:55:38.229Z,12.40
2023-03-13T04:58:35.131Z,10.27
2023-03-13T05:01:32.510Z,11.13
2023-03-13T05:04:29.371Z,16.73
2023-03-13T05:07:26.217Z,9.38
2023-03-13T05:10:23.018Z,13.35
2023-03-13T05:13:19.832Z,12.02
2023-03-13T05:16:16.711Z,9.93
2023-03-13T05:19:13.987Z,9.65
2023-03-13T05:22:11.414Z,10.57
2023-03-13T05:25:08.897Z,9.93
2023-03-13T05:28:05.895Z,11.77
2023-03-13T05:31:02.874Z,10.43
2023-03-13T05:33:59.885Z,7.25
2023-03-13T05:36:56.856Z,8.45
2023-03-13T05:39:53.749Z,5.53
2023-03-13T05:42:50.590Z,9.63
2023-03-13T05:45:47.462Z,13.15
2023-03-13T05:48:45.587Z,9.23
2023-03-13T05:51:42.442Z,14.38
2023-03-13T05:54:39.285Z,8.63
2023-03-13T05:57:36.295Z,13.45
2023-03-13T06:00:33.505Z,8.05
2023-03-13T06:03:30.497Z,9.82
2023-03-13T06:06:27.367Z,7.63
2023-03-13T06:09:24.243Z,6.03
2023-03-13T06:12:21.046Z,8.02
2023-03-13T06:15:17.829Z,10.25
2023-03-13T06:18:14.658Z,11.30
2023-03-13T06:21:11.811Z,10.35
2023-03-13T06:24:08.841Z,5.70
2023-03-13T06:27:06.996Z,15.93
2023-03-13T06:30:04.833Z,11.40
2023-03-13T06:33:01.765Z,12.82
2023-03-13T06:36:00.406Z,9.45
2023-03-13T06:38:57.259Z,25.27
2023-03-13T06:41:54.060Z,13.50
2023-03-13T06:44:50.920Z,7.50
2023-03-13T06:47:47.855Z,9.68
2023-03-13T06:50:44.847Z,9.55
2023-03-13T06:53:41.839Z,17.55
2023-03-13T06:56:38.640Z,14.68
2023-03-13T06:59:35.502Z,13.35
2023-03-13T07:02:32.546Z,13.85
2023-03-13T07:05:29.430Z,11.88
2023-03-13T07:08:26.665Z,7.88
2023-03-13T07:11:23.545Z,7.70
2023-03-13T07:14:20.477Z,8.65
2023-03-13T07:17:17.322Z,5.25
2023-03-13T07:20:16.504Z,8.95
2023-03-13T07:23:14.813Z,5.70
2023-03-13T07:26:15.291Z,3.50
2023-03-13T07:29:12.260Z,4.30
2023-03-13T07:32:09.359Z,3.40
2023-03-13T07:35:06.909Z,4.32
2023-03-13T07:38:03.725Z,4.70
2023-03-13T07:41:00.727Z,3.35
2023-03-13T07:43:57.559Z,4.82
2023-03-13T07:46:54.354Z,9.00
2023-03-13T07:49:51.188Z,6.35
2023-03-13T07:52:48.034Z,14.70
2023-03-13T07:55:51.184Z,12.90
2023-03-13T07:58:48.866Z,25.85
2023-03-13T08:01:45.680Z,10.80
2023-03-13T08:04:42.795Z,6.28
2023-03-13T08:07:39.589Z,4.35
2023-03-13T08:10:36.790Z,2.53
2023-03-13T08:13:41.289Z,2.38
2023-03-13T08:16:38.273Z,3.63
2023-03-13T08:19:35.192Z,4.20
2023-03-13T08:22:32.024Z,2.58
2023-03-13T08:25:28.858Z,1.90
2023-03-13T08:28:25.711Z,1.10
2023-03-13T08:31:28.693Z,2.17
2023-03-13T08:34:25.515Z,1.80
2023-03-13T08:37:22.342Z,1.52
2023-03-13T08:40:19.243Z,1.83
2023-03-13T08:43:16.040Z,3.33
2023-03-13T08:46:13.729Z,2.75
2023-03-13T08:49:12.148Z,2.10
2023-03-13T08:52:08.965Z,4.00
2023-03-13T08:55:06.632Z,2.67
2023-03-13T08:58:03.569Z,3.28
2023-03-13T09:01:14.767Z,3.40
2023-03-13T09:04:11.691Z,5.47
2023-03-13T09:07:08.540Z,4.82
2023-03-13T09:10:06.202Z,2.60
2023-03-13T09:13:03.173Z,3.55
2023-03-13T09:16:03.829Z,1.50
2023-03-13T09:19:01.969Z,3.30
2023-03-13T09:21:59.436Z,5.60
2023-03-13T09:24:56.280Z,8.48
2023-03-13T09:27:53.145Z,6.32
2023-03-13T09:30:50.510Z,4.72
2023-03-13T09:33:49.084Z,6.43
2023-03-13T09:36:46.234Z,3.78
2023-03-13T09:39:43.221Z,5.90
2023-03-13T09:42:52.996Z,2.95
2023-03-13T09:45:52.876Z,2.78
2023-03-13T09:49:02.780Z,3.93
2023-03-13T09:52:28.785Z,5.67
2023-03-13T09:55:36.614Z,2.25
2023-03-13T09:58:34.792Z,4.80
2023-03-13T10:01:33.933Z,7.80
2023-03-13T10:04:49.931Z,5.95
2023-03-13T10:07:46.993Z,2.75
2023-03-13T10:11:09.063Z,3.97
2023-03-13T10:14:33.727Z,3.25
2023-03-13T10:17:40.153Z,4.63
2023-03-13T10:20:37.010Z,5.32
2023-03-13T10:24:01.195Z,4.30
2023-03-13T10:26:58.338Z,6.25
2023-03-13T10:29:55.309Z,4.47
2023-03-13T10:33:17.082Z,5.70
2023-03-13T10:36:15.202Z,2.22
2023-03-13T10:39:23.505Z,6.15
2023-03-13T10:42:36.076Z,4.70
2023-03-13T10:45:36.616Z,4.13
2023-03-13T10:48:37.500Z,1.38
2023-03-13T10:51:39.174Z,2.95
2023-03-13T10:54:39.689Z,4.38
2023-03-13T10:57:37.981Z,3.70
2023-03-13T11:00:41.035Z,5.82
2023-03-13T11:03:38.045Z,3.58
2023-03-13T11:06:35.709Z,4.13
2023-03-13T11:09:33.343Z,3.38
2023-03-13T11:12:35.409Z,3.60
2023-03-13T11:15:51.457Z,3.22
2023-03-13T11:19:11.345Z,2.58
2023-03-13T11:22:14.494Z,3.97
2023-03-13T11:25:39.345Z,4.75
2023-03-13T11:29:20.689Z,5.07
2023-03-13T11:32:31.842Z,2.65
2023-03-13T11:35:48.060Z,7.97
2023-03-13T11:39:02.586Z,4.75
2023-03-13T11:42:59.015Z,9.43
2023-03-13T11:46:25.928Z,7.43
2023-03-13T11:49:40.852Z,6.13
2023-03-13T11:52:58.180Z,9.15
2023-03-13T11:56:15.260Z,3.55
2023-03-13T11:59:55.467Z,5.10
2023-03-13T12:03:10.850Z,5.00
2023-03-13T12:06:27.832Z,4.35
2023-03-13T12:09:45.327Z,4.85
2023-03-13T12:13:21.036Z,4.95
2023-03-13T12:16:31.115Z,4.68
2023-03-13T12:19:55.382Z,12.40
2023-03-13T12:23:18.804Z,7.20
2023-03-13T12:26:24.258Z,6.10
2023-03-13T12:29:48.929Z,6.10
2023-03-13T12:33:16.142Z,5.43
2023-03-13T12:36:29.196Z,4.38
2023-03-13T12:39:55.419Z,4.07
2023-03-13T12:43:24.883Z,4.95
2023-03-13T12:47:07.766Z,6.20
2023-03-13T12:50:45.008Z,6.45
2023-03-13T12:54:09.487Z,2.60
2023-03-13T12:57:21.503Z,5.32
2023-03-13T13:00:28.486Z,5.13
2023-03-13T13:04:04.235Z,3.83
2023-03-13T13:07:08.036Z,7.25
2023-03-13T13:10:11.200Z,4.60
2023-03-13T13:13:13.844Z,5.07
2023-03-13T13:16:20.258Z,4.28
2023-03-13T13:19:26.412Z,4.85
2023-03-13T13:22:38.358Z,3.15
2023-03-13T13:25:36.261Z,3.38
2023-03-13T13:28:35.588Z,8.27
2023-03-13T13:31:58.746Z,4.38
2023-03-13T13:35:23.613Z,3.47
2023-03-13T13:38:20.313Z,4.10
2023-03-13T13:41:16.973Z,4.70
2023-03-13T13:44:27.363Z,4.72
2023-03-13T13:47:26.708Z,3.80
2023-03-13T13:50:29.081Z,5.13
2023-03-13T13:53:42.187Z,4.60
2023-03-13T13:56:56.433Z,6.68
2023-03-13T14:00:25.003Z,3.70
2023-03-13T14:03:33.134Z,4.95
2023-03-13T14:06:36.541Z,6.20
2023-03-13T14:10:32.617Z,4.90
2023-03-13T14:13:29.589Z,5.22
2023-03-13T14:16:27.572Z,6.88
2023-03-13T14:19:40.668Z,3.35
2023-03-13T14:22:48.939Z,5.63
2023-03-13T14:25:49.271Z,3.90
2023-03-13T14:29:07.409Z,4.95
2023-03-13T14:32:06.176Z,6.10
2023-03-13T14:35:06.079Z,3.47
2023-03-13T14:38:03.799Z,4.20
2023-03-13T14:41:00.887Z,4.43
2023-03-13T14:44:12.498Z,6.10
2023-03-13T14:47:30.784Z,5.78
2023-03-13T14:50:27.834Z,5.07
2023-03-13T14:53:27.161Z,3.53
2023-03-13T14:56:33.118Z,4.57
2023-03-13T14:59:30.153Z,55.47
2023-03-13T15:02:30.899Z,25.58
2023-03-13T15:05:34.695Z,7.00
2023-03-13T15:08:31.874Z,5.80
2023-03-13T15:11:36.198Z,8.32
2023-03-13T15:14:46.236Z,17.33
2023-03-13T15:17:43.523Z,6.13
2023-03-13T15:20:40.460Z,5.28
2023-03-13T15:23:37.306Z,5.07
2023-03-13T15:26:34.353Z,4.93
2023-03-13T15:29:31.171Z,4.03
2023-03-13T15:32:35.741Z,3.05
2023-03-13T15:35:33.892Z,3.22
2023-03-13T15:38:30.802Z,4.28
2023-03-13T15:41:27.881Z,5.32
2023-03-13T15:44:24.777Z,4.68
2023-03-13T15:47:22.394Z,3.55
2023-03-13T15:50:22.393Z,4.50
2023-03-13T15:53:32.960Z,8.17
2023-03-13T15:56:35.634Z,3.00
2023-03-13T15:59:32.474Z,3.75
2023-03-13T16:02:29.264Z,3.20
2023-03-13T16:05:26.150Z,3.90
2023-03-13T16:08:36.562Z,11.45
2023-03-13T16:11:34.167Z,8.13
2023-03-13T16:14:30.988Z,5.20
2023-03-13T16:17:29.176Z,21.00
2023-03-13T16:20:26.519Z,7.65
2023-03-13T16:23:23.357Z,5.55
2023-03-13T16:29:25.746Z,17.77
2023-03-13T16:32:24.670Z,4.13
2023-03-13T16:35:23.144Z,3.95
2023-03-13T16:38:20.494Z,3.25
2023-03-13T16:41:20.859Z,3.05
2023-03-13T16:44:17.710Z,6.32
2023-03-13T16:47:25.149Z,4.95
2023-03-13T16:50:32.017Z,15.32
2023-03-13T16:53:29.009Z,5.38
2023-03-13T16:56:38.550Z,16.67
2023-03-13T16:59:35.399Z,4.38
2023-03-13T17:02:35.103Z,4.90
2023-03-13T17:05:32.008Z,5.50
2023-03-13T17:08:28.850Z,7.22
2023-03-13T17:11:25.745Z,2.20
2023-03-13T17:14:22.544Z,2.90
2023-03-13T17:17:22.875Z,2.25
2023-03-13T17:20:25.354Z,1.95
2023-03-13T17:23:22.175Z,0.47
2023-03-13T17:26:35.429Z,1.67
2023-03-13T17:29:32.242Z,2.40
2023-03-13T17:32:29.061Z,0.60
2023-03-13T17:35:26.131Z,2.92
2023-03-13T17:38:22.972Z,11.75
2023-03-13T17:41:25.974Z,1.60
2023-03-13T17:44:22.877Z,1.00
2023-03-13T17:47:23.951Z,3.17
2023-03-13T17:50:27.240Z,2.05
2023-03-13T17:53:24.167Z,2.40
2023-03-13T17:56:23.579Z,5.50
2023-03-13T17:59:20.375Z,4.30
2023-03-13T18:02:19.175Z,4.60
2023-03-13T18:05:16.482Z,3.88
2023-03-13T18:08:13.732Z,5.75
2023-03-13T18:11:12.125Z,4.57
2023-03-13T18:14:09.367Z,2.55
2023-03-13T18:17:19.010Z,0.95
2023-03-13T18:20:30.232Z,4.40
2023-03-13T18:23:27.082Z,1.52
2023-03-13T18:26:32.549Z,2.47
2023-03-13T18:29:29.966Z,5.53
2023-03-13T18:32:26.933Z,4.90
2023-03-13T18:35:23.821Z,1.35
2023-03-13T18:38:20.664Z,3.35
2023-03-13T18:41:19.791Z,10.80
2023-03-13T18:44:18.944Z,13.57
2023-03-13T18:47:18.949Z,5.07
2023-03-13T18:50:30.917Z,21.88
2023-03-13T18:53:27.767Z,28.08
2023-03-13T18:56:31.547Z,7.50
2023-03-13T18:59:29.562Z,10.15
2023-03-13T19:02:26.406Z,7.38
2023-03-13T19:05:24.139Z,9.48
2023-03-13T19:08:21.050Z,24.10
2023-03-13T19:11:21.991Z,19.15
2023-03-13T19:14:18.826Z,16.17
2023-03-13T19:17:29.560Z,17.17
2023-03-13T19:20:27.666Z,12.95
2023-03-13T19:23:24.808Z,11.20
2023-03-13T19:26:47.029Z,18.58
2023-03-13T19:29:45.399Z,8.10
2023-03-13T19:32:42.344Z,10.20
2023-03-13T19:35:39.408Z,16.08
2023-03-13T19:38:36.249Z,14.27
2023-03-13T19:41:33.049Z,21.65
2023-03-13T19:44:29.886Z,16.13
2023-03-13T19:47:26.771Z,12.25
2023-03-13T19:50:29.014Z,9.23
2023-03-13T19:53:25.916Z,10.65
2023-03-13T19:56:26.289Z,11.55
2023-03-13T19:59:28.329Z,11.52
2023-03-13T20:02:25.287Z,10.77
2023-03-13T20:05:22.654Z,9.90
2023-03-13T20:08:19.491Z,11.13
2023-03-13T20:11:16.415Z,10.85
2023-03-13T20:14:13.395Z,11.07
2023-03-13T20:17:10.183Z,12.07
2023-03-13T20:20:08.485Z,11.50
2023-03-13T20:23:05.307Z,16.58
2023-03-13T20:26:10.582Z,14.30
2023-03-13T20:29:07.427Z,10.15
2023-03-13T20:32:05.923Z,17.27
2023-03-13T20:35:02.824Z,7.78
2023-03-13T20:38:01.736Z,11.23
2023-03-13T20:40:59.037Z,8.32
2023-03-13T20:43:55.843Z,14.07
2023-03-13T20:46:52.824Z,17.70
2023-03-13T20:49:49.761Z,17.63
2023-03-13T20:52:46.790Z,9.50
2023-03-13T20:55:43.671Z,16.95
2023-03-13T20:58:40.556Z,4.20
2023-03-13T21:01:37.433Z,4.13
2023-03-13T21:04:34.293Z,6.38
2023-03-13T21:07:32.263Z,6.78
2023-03-13T21:10:29.061Z,5.18
2023-03-13T21:13:25.855Z,7.10
2023-03-13T21:16:22.705Z,8.80
2023-03-13T21:19:21.678Z,6.25
2023-03-13T21:22:19.346Z,4.90
2023-03-13T21:25:16.269Z,6.40
2023-03-13T21:28:13.076Z,4.63
2023-03-13T21:34:08.409Z,3.35
2023-03-13T21:37:05.258Z,3.50
2023-03-13T21:40:02.375Z,3.45
2023-03-13T21:42:59.244Z,1.67
2023-03-13T21:45:59.340Z,2.20
2023-03-13T21:48:56.150Z,3.28
2023-03-13T21:51:53.012Z,1.90
2023-03-13T21:54:50.084Z,3.35
2023-03-13T21:57:46.967Z,4.95
2023-03-13T22:00:44.834Z,3.10
2023-03-13T22:03:41.770Z,2.40
2023-03-13T22:06:38.636Z,2.92
2023-03-13T22:09:35.637Z,3.50
2023-03-13T22:12:32.477Z,2.60
2023-03-13T22:15:29.321Z,2.90
2023-03-13T22:18:26.377Z,3.00
2023-03-13T22:21:23.208Z,3.30
2023-03-13T22:24:20.085Z,3.50
2023-03-13T22:27:17.953Z,4.70
2023-03-13T22:30:14.957Z,4.03
2023-03-13T22:33:11.873Z,4.15
2023-03-13T22:36:09.812Z,3.05
2023-03-13T22:39:06.675Z,3.78
2023-03-13T22:42:04.185Z,3.35
2023-03-13T22:45:01.040Z,2.97
2023-03-13T22:47:58.120Z,3.35
2023-03-13T22:51:06.089Z,2.90
2023-03-13T22:54:04.280Z,2.53
2023-03-13T22:57:01.109Z,3.67
2023-03-13T23:00:01.649Z,2.55
2023-03-13T23:02:58.692Z,1.83
2023-03-13T23:05:55.554Z,3.22
2023-03-13T23:08:52.752Z,2.78
2023-03-13T23:11:49.532Z,2.67
2023-03-13T23:14:46.459Z,4.72
2023-03-13T23:17:43.520Z,1.75
2023-03-13T23:20:40.385Z,2.40
2023-03-13T23:23:37.872Z,2.30
2023-03-13T23:26:34.737Z,2.17
2023-03-13T23:29:31.901Z,2.10
2023-03-13T23:32:28.957Z,3.45
2023-03-13T23:35:25.866Z,2.05
2023-03-13T23:38:25.332Z,1.70
2023-03-13T23:41:22.430Z,2.88
2023-03-13T23:44:19.311Z,2.90
2023-03-13T23:47:16.131Z,1.90
2023-03-13T23:50:15.479Z,1.88
2023-03-13T23:53:12.455Z,2.95
2023-03-13T23:56:10.784Z,1.80
2023-03-13T23:59:07.695Z,2.25
